sensor_id;sensor_type;location;lat;lon;timestamp;P1;durP1;ratioP1;P2;durP2;ratioP2
12762;SDS011;6445;52.490;13.378;2024-03-02T00:02:00;68.10;;;38.55;;
12762;SDS011;6445;52.490;13.378;2024-03-02T00:04:25;63.70;;;39.35;;
12762;SDS011;6445;52.490;13.378;2024-03-02T00:06:52;63.88;;;38.70;;
12762;SDS011;6445;52.490;13.378;2024-03-02T00:09:19;62.17;;;39.05;;
12762;SDS011;6445;52.490;13.378;2024-03-02T00:11:45;66.70;;;39.30;;
12762;SDS011;6445;52.490;13.378;2024-03-02T00:14:10;62.42;;;38.67;;
12762;SDS011;6445;52.490;13.378;2024-03-02T00:16:35;60.58;;;38.40;;
12762;SDS011;6445;52.490;13.378;2024-03-02T00:19:02;65.07;;;40.35;;
12762;SDS011;6445;52.490;13.378;2024-03-02T00:21:29;64.90;;;39.22;;
12762;SDS011;6445;52.490;13.378;2024-03-02T00:23:55;65.47;;;40.75;;
12762;SDS011;6445;52.490;13.378;2024-03-02T00:26:22;62.17;;;40.70;;
12762;SDS011;6445;52.490;13.378;2024-03-02T00:28:47;70.82;;;41.35;;
12762;SDS011;6445;52.490;13.378;2024-03-02T00:31:15;68.65;;;39.85;;
12762;SDS011;6445;52.490;13.378;2024-03-02T00:33:43;60.97;;;40.38;;
12762;SDS011;6445;52.490;13.378;2024-03-02T00:36:10;66.45;;;40.95;;
12762;SDS011;6445;52.490;13.378;2024-03-02T00:38:42;61.95;;;38.97;;
12762;SDS011;6445;52.490;13.378;2024-03-02T00:41:15;69.15;;;40.60;;
12762;SDS011;6445;52.490;13.378;2024-03-02T00:43:47;68.00;;;41.63;;
12762;SDS011;6445;52.490;13.378;2024-03-02T00:46:19;59.03;;;39.03;;
12762;SDS011;6445;52.490;13.378;2024-03-02T00:48:48;66.57;;;40.25;;
12762;SDS011;6445;52.490;13.378;2024-03-02T00:51:19;71.15;;;41.83;;
12762;SDS011;6445;52.490;13.378;2024-03-02T00:53:44;64.60;;;40.78;;
12762;SDS011;6445;52.490;13.378;2024-03-02T00:56:10;74.20;;;44.25;;
12762;SDS011;6445;52.490;13.378;2024-03-02T00:58:37;77.53;;;44.78;;
12762;SDS011;6445;52.490;13.378;2024-03-02T01:01:02;71.57;;;43.45;;
12762;SDS011;6445;52.490;13.378;2024-03-02T01:03:28;74.80;;;44.95;;
12762;SDS011;6445;52.490;13.378;2024-03-02T01:05:53;74.40;;;44.38;;
12762;SDS011;6445;52.490;13.378;2024-03-02T01:08:18;72.88;;;43.53;;
12762;SDS011;6445;52.490;13.378;2024-03-02T01:10:43;74.53;;;44.67;;
12762;SDS011;6445;52.490;13.378;2024-03-02T01:13:09;78.13;;;43.88;;
12762;SDS011;6445;52.490;13.378;2024-03-02T01:15:34;74.80;;;43.58;;
12762;SDS011;6445;52.490;13.378;2024-03-02T01:17:59;73.53;;;45.17;;
12762;SDS011;6445;52.490;13.378;2024-03-02T01:20:24;76.07;;;43.78;;
12762;SDS011;6445;52.490;13.378;2024-03-02T01:22:50;74.28;;;43.92;;
12762;SDS011;6445;52.490;13.378;2024-03-02T01:25:15;75.50;;;44.50;;
12762;SDS011;6445;52.490;13.378;2024-03-02T01:27:41;75.45;;;43.97;;
12762;SDS011;6445;52.490;13.378;2024-03-02T01:30:06;74.63;;;45.10;;
12762;SDS011;6445;52.490;13.378;2024-03-02T01:32:32;71.50;;;42.70;;
12762;SDS011;6445;52.490;13.378;2024-03-02T01:34:57;74.03;;;45.20;;
12762;SDS011;6445;52.490;13.378;2024-03-02T01:37:23;75.95;;;44.67;;
12762;SDS011;6445;52.490;13.378;2024-03-02T01:39:48;74.15;;;45.47;;
12762;SDS011;6445;52.490;13.378;2024-03-02T01:42:13;71.85;;;44.33;;
12762;SDS011;6445;52.490;13.378;2024-03-02T01:44:39;70.47;;;44.00;;
12762;SDS011;6445;52.490;13.378;2024-03-02T01:47:05;68.63;;;43.35;;
12762;SDS011;6445;52.490;13.378;2024-03-02T01:49:30;74.20;;;43.85;;
12762;SDS011;6445;52.490;13.378;2024-03-02T01:51:55;70.10;;;44.80;;
12762;SDS011;6445;52.490;13.378;2024-03-02T01:54:21;71.07;;;43.90;;
12762;SDS011;6445;52.490;13.378;2024-03-02T01:56:46;72.25;;;45.92;;
12762;SDS011;6445;52.490;13.378;2024-03-02T01:59:11;77.28;;;46.38;;
12762;SDS011;6445;52.490;13.378;2024-03-02T02:01:38;72.72;;;45.20;;
12762;SDS011;6445;52.490;13.378;2024-03-02T02:04:03;72.30;;;45.47;;
12762;SDS011;6445;52.490;13.378;2024-03-02T02:06:28;71.97;;;44.65;;
12762;SDS011;6445;52.490;13.378;2024-03-02T02:08:54;73.60;;;45.17;;
12762;SDS011;6445;52.490;13.378;2024-03-02T02:11:20;74.28;;;44.50;;
12762;SDS011;6445;52.490;13.378;2024-03-02T02:13:45;76.30;;;45.17;;
12762;SDS011;6445;52.490;13.378;2024-03-02T02:16:10;76.13;;;45.38;;
12762;SDS011;6445;52.490;13.378;2024-03-02T02:18:36;75.60;;;46.47;;
12762;SDS011;6445;52.490;13.378;2024-03-02T02:21:01;77.82;;;46.75;;
12762;SDS011;6445;52.490;13.378;2024-03-02T02:23:27;78.10;;;46.65;;
12762;SDS011;6445;52.490;13.378;2024-03-02T02:25:52;82.53;;;46.20;;
12762;SDS011;6445;52.490;13.378;2024-03-02T02:28:17;80.78;;;45.65;;
12762;SDS011;6445;52.490;13.378;2024-03-02T02:30:43;77.55;;;47.85;;
12762;SDS011;6445;52.490;13.378;2024-03-02T02:33:08;71.30;;;45.95;;
12762;SDS011;6445;52.490;13.378;2024-03-02T02:35:34;80.88;;;48.47;;
12762;SDS011;6445;52.490;13.378;2024-03-02T02:37:59;84.25;;;49.05;;
12762;SDS011;6445;52.490;13.378;2024-03-02T02:40:25;89.45;;;49.20;;
12762;SDS011;6445;52.490;13.378;2024-03-02T02:42:51;86.32;;;49.40;;
12762;SDS011;6445;52.490;13.378;2024-03-02T02:45:19;89.60;;;51.63;;
12762;SDS011;6445;52.490;13.378;2024-03-02T02:47:44;86.55;;;50.55;;
12762;SDS011;6445;52.490;13.378;2024-03-02T02:50:10;88.75;;;49.85;;
12762;SDS011;6445;52.490;13.378;2024-03-02T02:52:37;85.20;;;51.10;;
12762;SDS011;6445;52.490;13.378;2024-03-02T02:55:05;88.88;;;51.33;;
12762;SDS011;6445;52.490;13.378;2024-03-02T02:57:34;86.53;;;50.28;;
12762;SDS011;6445;52.490;13.378;2024-03-02T03:00:03;84.47;;;50.08;;
12762;SDS011;6445;52.490;13.378;2024-03-02T03:02:30;84.75;;;48.17;;
12762;SDS011;6445;52.490;13.378;2024-03-02T03:04:56;87.05;;;50.05;;
12762;SDS011;6445;52.490;13.378;2024-03-02T03:07:22;85.15;;;48.53;;
12762;SDS011;6445;52.490;13.378;2024-03-02T03:09:47;87.35;;;49.33;;
12762;SDS011;6445;52.490;13.378;2024-03-02T03:12:12;82.57;;;48.90;;
12762;SDS011;6445;52.490;13.378;2024-03-02T03:14:39;85.22;;;48.33;;
12762;SDS011;6445;52.490;13.378;2024-03-02T03:17:05;86.78;;;50.08;;
12762;SDS011;6445;52.490;13.378;2024-03-02T03:19:31;84.93;;;51.50;;
12762;SDS011;6445;52.490;13.378;2024-03-02T03:21:57;83.80;;;49.63;;
12762;SDS011;6445;52.490;13.378;2024-03-02T03:24:22;90.10;;;49.58;;
12762;SDS011;6445;52.490;13.378;2024-03-02T03:26:47;84.13;;;49.30;;
12762;SDS011;6445;52.490;13.378;2024-03-02T03:29:12;81.57;;;48.22;;
12762;SDS011;6445;52.490;13.378;2024-03-02T03:31:38;83.18;;;49.42;;
12762;SDS011;6445;52.490;13.378;2024-03-02T03:34:03;81.15;;;46.92;;
12762;SDS011;6445;52.490;13.378;2024-03-02T03:36:28;88.38;;;47.78;;
12762;SDS011;6445;52.490;13.378;2024-03-02T03:38:53;83.15;;;47.30;;
12762;SDS011;6445;52.490;13.378;2024-03-02T03:41:19;74.65;;;45.97;;
12762;SDS011;6445;52.490;13.378;2024-03-02T03:43:44;80.40;;;48.05;;
12762;SDS011;6445;52.490;13.378;2024-03-02T03:46:09;83.85;;;46.53;;
12762;SDS011;6445;52.490;13.378;2024-03-02T03:48:35;78.55;;;46.20;;
12762;SDS011;6445;52.490;13.378;2024-03-02T03:51:00;78.63;;;47.13;;
12762;SDS011;6445;52.490;13.378;2024-03-02T03:53:26;76.78;;;47.20;;
12762;SDS011;6445;52.490;13.378;2024-03-02T03:55:51;81.32;;;46.22;;
12762;SDS011;6445;52.490;13.378;2024-03-02T03:58:16;80.68;;;46.50;;
12762;SDS011;6445;52.490;13.378;2024-03-02T04:00:43;78.25;;;46.17;;
12762;SDS011;6445;52.490;13.378;2024-03-02T04:03:09;76.38;;;45.75;;
12762;SDS011;6445;52.490;13.378;2024-03-02T04:05:34;76.20;;;45.53;;
12762;SDS011;6445;52.490;13.378;2024-03-02T04:07:59;80.85;;;44.63;;
12762;SDS011;6445;52.490;13.378;2024-03-02T04:10:25;73.47;;;45.83;;
12762;SDS011;6445;52.490;13.378;2024-03-02T04:12:50;76.60;;;45.00;;
12762;SDS011;6445;52.490;13.378;2024-03-02T04:15:16;69.47;;;44.60;;
12762;SDS011;6445;52.490;13.378;2024-03-02T04:17:43;73.70;;;43.45;;
12762;SDS011;6445;52.490;13.378;2024-03-02T04:20:08;79.15;;;43.75;;
12762;SDS011;6445;52.490;13.378;2024-03-02T04:22:34;73.88;;;44.40;;
12762;SDS011;6445;52.490;13.378;2024-03-02T04:25:00;77.93;;;43.13;;
12762;SDS011;6445;52.490;13.378;2024-03-02T04:27:26;71.43;;;43.38;;
12762;SDS011;6445;52.490;13.378;2024-03-02T04:29:51;72.38;;;43.53;;
12762;SDS011;6445;52.490;13.378;2024-03-02T04:32:16;69.60;;;42.03;;
12762;SDS011;6445;52.490;13.378;2024-03-02T04:34:42;66.53;;;42.53;;
12762;SDS011;6445;52.490;13.378;2024-03-02T04:37:07;70.28;;;42.65;;
12762;SDS011;6445;52.490;13.378;2024-03-02T04:39:34;63.03;;;41.53;;
12762;SDS011;6445;52.490;13.378;2024-03-02T04:42:00;66.53;;;41.50;;
12762;SDS011;6445;52.490;13.378;2024-03-02T04:44:25;63.90;;;38.40;;
12762;SDS011;6445;52.490;13.378;2024-03-02T04:46:51;61.97;;;38.63;;
12762;SDS011;6445;52.490;13.378;2024-03-02T04:49:16;64.47;;;39.75;;
12762;SDS011;6445;52.490;13.378;2024-03-02T04:51:41;64.13;;;38.72;;
12762;SDS011;6445;52.490;13.378;2024-03-02T04:54:06;65.10;;;38.97;;
12762;SDS011;6445;52.490;13.378;2024-03-02T04:56:32;62.83;;;40.60;;
12762;SDS011;6445;52.490;13.378;2024-03-02T04:58:57;63.13;;;39.03;;
12762;SDS011;6445;52.490;13.378;2024-03-02T05:01:22;61.50;;;38.15;;
12762;SDS011;6445;52.490;13.378;2024-03-02T05:03:48;62.15;;;38.15;;
12762;SDS011;6445;52.490;13.378;2024-03-02T05:06:13;61.53;;;39.70;;
12762;SDS011;6445;52.490;13.378;2024-03-02T05:08:39;65.57;;;39.38;;
12762;SDS011;6445;52.490;13.378;2024-03-02T05:11:04;61.47;;;39.58;;
12762;SDS011;6445;52.490;13.378;2024-03-02T05:13:48;68.82;;;39.42;;
12762;SDS011;6445;52.490;13.378;2024-03-02T05:16:13;61.03;;;39.17;;
12762;SDS011;6445;52.490;13.378;2024-03-02T05:18:39;65.72;;;39.78;;
12762;SDS011;6445;52.490;13.378;2024-03-02T05:21:04;63.25;;;38.75;;
12762;SDS011;6445;52.490;13.378;2024-03-02T05:23:29;64.95;;;40.40;;
12762;SDS011;6445;52.490;13.378;2024-03-02T05:25:54;68.90;;;40.95;;
12762;SDS011;6445;52.490;13.378;2024-03-02T05:28:20;69.60;;;41.35;;
12762;SDS011;6445;52.490;13.378;2024-03-02T05:30:45;68.15;;;40.67;;
12762;SDS011;6445;52.490;13.378;2024-03-02T05:33:11;73.75;;;41.92;;
12762;SDS011;6445;52.490;13.378;2024-03-02T05:35:36;68.72;;;40.90;;
12762;SDS011;6445;52.490;13.378;2024-03-02T05:38:01;75.20;;;42.00;;
12762;SDS011;6445;52.490;13.378;2024-03-02T05:40:27;69.47;;;41.70;;
12762;SDS011;6445;52.490;13.378;2024-03-02T05:42:52;71.90;;;43.03;;
12762;SDS011;6445;52.490;13.378;2024-03-02T05:45:17;73.35;;;43.95;;
12762;SDS011;6445;52.490;13.378;2024-03-02T05:47:43;81.07;;;45.40;;
12762;SDS011;6445;52.490;13.378;2024-03-02T05:50:08;83.20;;;45.80;;
12762;SDS011;6445;52.490;13.378;2024-03-02T05:52:33;79.05;;;47.60;;
12762;SDS011;6445;52.490;13.378;2024-03-02T05:54:59;85.75;;;46.55;;
12762;SDS011;6445;52.490;13.378;2024-03-02T05:57:24;85.90;;;46.10;;
12762;SDS011;6445;52.490;13.378;2024-03-02T06:00:08;79.13;;;45.15;;
12762;SDS011;6445;52.490;13.378;2024-03-02T06:02:34;87.47;;;48.45;;
12762;SDS011;6445;52.490;13.378;2024-03-02T06:05:00;83.43;;;46.85;;
12762;SDS011;6445;52.490;13.378;2024-03-02T06:07:25;86.25;;;47.35;;
12762;SDS011;6445;52.490;13.378;2024-03-02T06:09:50;78.95;;;47.17;;
12762;SDS011;6445;52.490;13.378;2024-03-02T06:12:17;85.63;;;47.42;;
12762;SDS011;6445;52.490;13.378;2024-03-02T06:14:43;83.50;;;48.08;;
12762;SDS011;6445;52.490;13.378;2024-03-02T06:17:08;81.53;;;46.70;;
12762;SDS011;6445;52.490;13.378;2024-03-02T06:19:33;86.70;;;47.65;;
12762;SDS011;6445;52.490;13.378;2024-03-02T06:21:58;87.00;;;47.60;;
12762;SDS011;6445;52.490;13.378;2024-03-02T06:24:24;82.28;;;46.60;;
12762;SDS011;6445;52.490;13.378;2024-03-02T06:26:51;90.70;;;47.80;;
12762;SDS011;6445;52.490;13.378;2024-03-02T06:29:16;78.78;;;46.03;;
12762;SDS011;6445;52.490;13.378;2024-03-02T06:31:42;86.30;;;47.65;;
12762;SDS011;6445;52.490;13.378;2024-03-02T06:34:07;86.53;;;47.08;;
12762;SDS011;6445;52.490;13.378;2024-03-02T06:36:33;84.18;;;46.50;;
12762;SDS011;6445;52.490;13.378;2024-03-02T06:38:59;85.90;;;47.00;;
12762;SDS011;6445;52.490;13.378;2024-03-02T06:41:24;83.47;;;46.63;;
12762;SDS011;6445;52.490;13.378;2024-03-02T06:43:49;90.00;;;48.42;;
12762;SDS011;6445;52.490;13.378;2024-03-02T06:46:14;90.15;;;47.80;;
12762;SDS011;6445;52.490;13.378;2024-03-02T06:48:40;83.90;;;46.63;;
12762;SDS011;6445;52.490;13.378;2024-03-02T06:51:05;80.75;;;45.92;;
12762;SDS011;6445;52.490;13.378;2024-03-02T06:53:30;82.57;;;45.58;;
12762;SDS011;6445;52.490;13.378;2024-03-02T06:55:58;79.75;;;46.22;;
12762;SDS011;6445;52.490;13.378;2024-03-02T06:58:23;80.00;;;46.25;;
12762;SDS011;6445;52.490;13.378;2024-03-02T07:00:48;83.40;;;46.17;;
12762;SDS011;6445;52.490;13.378;2024-03-02T07:03:14;81.20;;;45.42;;
12762;SDS011;6445;52.490;13.378;2024-03-02T07:05:39;84.50;;;46.22;;
12762;SDS011;6445;52.490;13.378;2024-03-02T07:08:04;85.13;;;45.90;;
12762;SDS011;6445;52.490;13.378;2024-03-02T07:10:30;80.05;;;46.83;;
12762;SDS011;6445;52.490;13.378;2024-03-02T07:12:56;83.43;;;45.80;;
12762;SDS011;6445;52.490;13.378;2024-03-02T07:15:21;78.47;;;45.30;;
12762;SDS011;6445;52.490;13.378;2024-03-02T07:17:52;77.43;;;44.75;;
12762;SDS011;6445;52.490;13.378;2024-03-02T07:20:17;78.25;;;44.55;;
12762;SDS011;6445;52.490;13.378;2024-03-02T07:22:43;83.20;;;46.22;;
12762;SDS011;6445;52.490;13.378;2024-03-02T07:25:08;79.72;;;45.17;;
12762;SDS011;6445;52.490;13.378;2024-03-02T07:27:33;80.30;;;45.42;;
12762;SDS011;6445;52.490;13.378;2024-03-02T07:30:01;75.07;;;44.13;;
12762;SDS011;6445;52.490;13.378;2024-03-02T07:32:27;77.88;;;44.55;;
12762;SDS011;6445;52.490;13.378;2024-03-02T07:34:52;80.55;;;45.30;;
12762;SDS011;6445;52.490;13.378;2024-03-02T07:37:17;78.75;;;43.88;;
12762;SDS011;6445;52.490;13.378;2024-03-02T07:39:43;75.88;;;44.47;;
12762;SDS011;6445;52.490;13.378;2024-03-02T07:42:09;76.03;;;44.90;;
12762;SDS011;6445;52.490;13.378;2024-03-02T07:44:34;71.45;;;42.10;;
12762;SDS011;6445;52.490;13.378;2024-03-02T07:47:00;72.70;;;44.08;;
12762;SDS011;6445;52.490;13.378;2024-03-02T07:49:25;73.50;;;43.17;;
12762;SDS011;6445;52.490;13.378;2024-03-02T07:51:51;73.40;;;41.42;;
12762;SDS011;6445;52.490;13.378;2024-03-02T07:54:16;69.30;;;41.47;;
12762;SDS011;6445;52.490;13.378;2024-03-02T07:56:41;71.57;;;40.90;;
12762;SDS011;6445;52.490;13.378;2024-03-02T07:59:06;69.20;;;40.75;;
12762;SDS011;6445;52.490;13.378;2024-03-02T08:01:32;81.30;;;41.50;;
12762;SDS011;6445;52.490;13.378;2024-03-02T08:03:58;68.95;;;40.50;;
12762;SDS011;6445;52.490;13.378;2024-03-02T08:06:24;74.93;;;42.70;;
12762;SDS011;6445;52.490;13.378;2024-03-02T08:08:53;67.65;;;40.65;;
12762;SDS011;6445;52.490;13.378;2024-03-02T08:11:19;67.38;;;40.63;;
12762;SDS011;6445;52.490;13.378;2024-03-02T08:13:44;71.78;;;40.58;;
12762;SDS011;6445;52.490;13.378;2024-03-02T08:16:10;73.47;;;41.90;;
12762;SDS011;6445;52.490;13.378;2024-03-02T08:18:35;70.30;;;41.22;;
12762;SDS011;6445;52.490;13.378;2024-03-02T08:21:00;67.90;;;41.25;;
12762;SDS011;6445;52.490;13.378;2024-03-02T08:23:26;69.70;;;41.70;;
12762;SDS011;6445;52.490;13.378;2024-03-02T08:25:52;67.43;;;41.45;;
12762;SDS011;6445;52.490;13.378;2024-03-02T08:28:17;67.38;;;42.05;;
12762;SDS011;6445;52.490;13.378;2024-03-02T08:30:42;77.90;;;41.55;;
12762;SDS011;6445;52.490;13.378;2024-03-02T08:33:07;72.20;;;40.92;;
12762;SDS011;6445;52.490;13.378;2024-03-02T08:35:33;65.18;;;41.20;;
12762;SDS011;6445;52.490;13.378;2024-03-02T08:38:01;67.53;;;40.85;;
12762;SDS011;6445;52.490;13.378;2024-03-02T08:40:30;67.45;;;40.17;;
12762;SDS011;6445;52.490;13.378;2024-03-02T08:42:56;66.55;;;39.75;;
12762;SDS011;6445;52.490;13.378;2024-03-02T08:45:21;68.95;;;40.10;;
12762;SDS011;6445;52.490;13.378;2024-03-02T08:47:47;63.15;;;40.13;;
12762;SDS011;6445;52.490;13.378;2024-03-02T08:50:13;63.83;;;38.53;;
12762;SDS011;6445;52.490;13.378;2024-03-02T08:52:38;65.30;;;37.47;;
12762;SDS011;6445;52.490;13.378;2024-03-02T08:55:03;56.78;;;36.78;;
12762;SDS011;6445;52.490;13.378;2024-03-02T08:57:29;59.47;;;37.63;;
12762;SDS011;6445;52.490;13.378;2024-03-02T08:59:54;64.85;;;37.55;;
12762;SDS011;6445;52.490;13.378;2024-03-02T09:02:20;62.63;;;37.42;;
12762;SDS011;6445;52.490;13.378;2024-03-02T09:04:45;62.95;;;37.13;;
12762;SDS011;6445;52.490;13.378;2024-03-02T09:07:10;59.78;;;37.67;;
12762;SDS011;6445;52.490;13.378;2024-03-02T09:09:36;60.50;;;38.17;;
12762;SDS011;6445;52.490;13.378;2024-03-02T09:12:03;61.25;;;37.72;;
12762;SDS011;6445;52.490;13.378;2024-03-02T09:14:29;59.28;;;37.15;;
12762;SDS011;6445;52.490;13.378;2024-03-02T09:16:54;59.45;;;37.22;;
12762;SDS011;6445;52.490;13.378;2024-03-02T09:19:19;60.47;;;37.88;;
12762;SDS011;6445;52.490;13.378;2024-03-02T09:21:44;69.50;;;41.30;;
12762;SDS011;6445;52.490;13.378;2024-03-02T09:24:09;57.22;;;37.15;;
12762;SDS011;6445;52.490;13.378;2024-03-02T09:26:35;60.45;;;36.83;;
12762;SDS011;6445;52.490;13.378;2024-03-02T09:29:00;62.65;;;36.42;;
12762;SDS011;6445;52.490;13.378;2024-03-02T09:31:25;63.28;;;36.15;;
12762;SDS011;6445;52.490;13.378;2024-03-02T09:33:51;57.38;;;35.47;;
12762;SDS011;6445;52.490;13.378;2024-03-02T09:36:17;59.03;;;35.83;;
12762;SDS011;6445;52.490;13.378;2024-03-02T09:38:45;57.15;;;34.55;;
12762;SDS011;6445;52.490;13.378;2024-03-02T09:41:11;56.67;;;35.55;;
12762;SDS011;6445;52.490;13.378;2024-03-02T09:43:37;56.70;;;34.45;;
12762;SDS011;6445;52.490;13.378;2024-03-02T09:46:03;52.40;;;33.92;;
12762;SDS011;6445;52.490;13.378;2024-03-02T09:48:28;53.70;;;32.85;;
12762;SDS011;6445;52.490;13.378;2024-03-02T09:50:53;53.67;;;33.33;;
12762;SDS011;6445;52.490;13.378;2024-03-02T09:53:19;51.03;;;32.63;;
12762;SDS011;6445;52.490;13.378;2024-03-02T09:55:47;49.80;;;32.38;;
12762;SDS011;6445;52.490;13.378;2024-03-02T09:58:13;48.03;;;30.75;;
12762;SDS011;6445;52.490;13.378;2024-03-02T10:00:38;47.42;;;30.60;;
12762;SDS011;6445;52.490;13.378;2024-03-02T10:03:03;49.60;;;31.00;;
12762;SDS011;6445;52.490;13.378;2024-03-02T10:05:30;49.30;;;31.27;;
12762;SDS011;6445;52.490;13.378;2024-03-02T10:07:59;45.20;;;29.27;;
12762;SDS011;6445;52.490;13.378;2024-03-02T10:10:33;48.42;;;29.40;;
12762;SDS011;6445;52.490;13.378;2024-03-02T10:13:04;42.72;;;28.55;;
12762;SDS011;6445;52.490;13.378;2024-03-02T10:15:30;47.53;;;28.55;;
12762;SDS011;6445;52.490;13.378;2024-03-02T10:17:56;43.00;;;28.17;;
12762;SDS011;6445;52.490;13.378;2024-03-02T10:20:23;39.47;;;25.95;;
12762;SDS011;6445;52.490;13.378;2024-03-02T10:22:49;40.33;;;26.60;;
12762;SDS011;6445;52.490;13.378;2024-03-02T10:25:33;37.03;;;24.48;;
12762;SDS011;6445;52.490;13.378;2024-03-02T10:27:59;40.22;;;26.30;;
12762;SDS011;6445;52.490;13.378;2024-03-02T10:30:28;44.33;;;26.67;;
12762;SDS011;6445;52.490;13.378;2024-03-02T10:32:54;39.05;;;25.85;;
12762;SDS011;6445;52.490;13.378;2024-03-02T10:35:21;39.05;;;25.30;;
12762;SDS011;6445;52.490;13.378;2024-03-02T10:37:47;37.70;;;25.63;;
12762;SDS011;6445;52.490;13.378;2024-03-02T10:40:13;39.10;;;24.50;;
12762;SDS011;6445;52.490;13.378;2024-03-02T10:42:39;34.38;;;24.58;;
12762;SDS011;6445;52.490;13.378;2024-03-02T10:45:06;31.85;;;22.75;;
12762;SDS011;6445;52.490;13.378;2024-03-02T10:47:34;37.53;;;22.85;;
12762;SDS011;6445;52.490;13.378;2024-03-02T10:50:01;33.35;;;22.58;;
12762;SDS011;6445;52.490;13.378;2024-03-02T10:52:33;39.97;;;24.05;;
12762;SDS011;6445;52.490;13.378;2024-03-02T10:54:59;32.53;;;22.60;;
12762;SDS011;6445;52.490;13.378;2024-03-02T10:57:24;32.95;;;22.48;;
12762;SDS011;6445;52.490;13.378;2024-03-02T10:59:56;36.80;;;23.45;;
12762;SDS011;6445;52.490;13.378;2024-03-02T11:02:22;35.08;;;22.65;;
12762;SDS011;6445;52.490;13.378;2024-03-02T11:04:49;34.45;;;22.92;;
12762;SDS011;6445;52.490;13.378;2024-03-02T11:07:15;34.38;;;22.17;;
12762;SDS011;6445;52.490;13.378;2024-03-02T11:09:45;34.20;;;22.83;;
12762;SDS011;6445;52.490;13.378;2024-03-02T11:12:31;31.70;;;21.17;;
12762;SDS011;6445;52.490;13.378;2024-03-02T11:15:18;29.02;;;20.92;;
12762;SDS011;6445;52.490;13.378;2024-03-02T11:17:46;33.45;;;21.88;;
12762;SDS011;6445;52.490;13.378;2024-03-02T11:20:12;32.10;;;21.20;;
12762;SDS011;6445;52.490;13.378;2024-03-02T11:22:39;30.77;;;20.73;;
12762;SDS011;6445;52.490;13.378;2024-03-02T11:25:05;29.48;;;19.63;;
12762;SDS011;6445;52.490;13.378;2024-03-02T11:30:48;28.45;;;19.35;;
12762;SDS011;6445;52.490;13.378;2024-03-02T11:33:08;31.27;;;19.73;;
12762;SDS011;6445;52.490;13.378;2024-03-02T11:35:34;28.55;;;19.80;;
12762;SDS011;6445;52.490;13.378;2024-03-02T11:38:01;30.33;;;20.27;;
12762;SDS011;6445;52.490;13.378;2024-03-02T11:40:28;33.53;;;20.58;;
12762;SDS011;6445;52.490;13.378;2024-03-02T11:42:54;29.23;;;19.20;;
12762;SDS011;6445;52.490;13.378;2024-03-02T11:45:23;29.88;;;21.27;;
12762;SDS011;6445;52.490;13.378;2024-03-02T11:47:55;30.63;;;20.40;;
12762;SDS011;6445;52.490;13.378;2024-03-02T11:53:13;29.80;;;19.73;;
12762;SDS011;6445;52.490;13.378;2024-03-02T11:55:39;29.42;;;19.95;;
12762;SDS011;6445;52.490;13.378;2024-03-02T11:58:11;31.75;;;20.90;;
12762;SDS011;6445;52.490;13.378;2024-03-02T12:00:37;27.67;;;18.85;;
12762;SDS011;6445;52.490;13.378;2024-03-02T12:03:06;26.08;;;19.25;;
12762;SDS011;6445;52.490;13.378;2024-03-02T12:05:33;28.83;;;20.08;;
12762;SDS011;6445;52.490;13.378;2024-03-02T12:08:05;29.92;;;20.50;;
12762;SDS011;6445;52.490;13.378;2024-03-02T12:10:32;27.02;;;19.08;;
12762;SDS011;6445;52.490;13.378;2024-03-02T12:13:02;32.80;;;22.13;;
12762;SDS011;6445;52.490;13.378;2024-03-02T12:15:32;31.75;;;20.27;;
12762;SDS011;6445;52.490;13.378;2024-03-02T12:17:59;30.27;;;20.52;;
12762;SDS011;6445;52.490;13.378;2024-03-02T12:20:26;30.63;;;20.40;;
12762;SDS011;6445;52.490;13.378;2024-03-02T12:22:54;28.52;;;20.73;;
12762;SDS011;6445;52.490;13.378;2024-03-02T12:25:20;28.88;;;19.85;;
12762;SDS011;6445;52.490;13.378;2024-03-02T12:27:47;30.45;;;19.48;;
12762;SDS011;6445;52.490;13.378;2024-03-02T12:30:18;28.27;;;18.52;;
12762;SDS011;6445;52.490;13.378;2024-03-02T12:32:44;31.30;;;19.92;;
12762;SDS011;6445;52.490;13.378;2024-03-02T12:35:10;31.23;;;20.42;;
12762;SDS011;6445;52.490;13.378;2024-03-02T12:37:43;30.88;;;20.30;;
12762;SDS011;6445;52.490;13.378;2024-03-02T12:40:10;30.20;;;20.23;;
12762;SDS011;6445;52.490;13.378;2024-03-02T12:42:37;31.95;;;20.95;;
12762;SDS011;6445;52.490;13.378;2024-03-02T12:45:02;30.65;;;20.08;;
12762;SDS011;6445;52.490;13.378;2024-03-02T12:47:28;31.35;;;20.30;;
12762;SDS011;6445;52.490;13.378;2024-03-02T12:49:54;30.27;;;19.73;;
12762;SDS011;6445;52.490;13.378;2024-03-02T12:52:20;27.42;;;19.35;;
12762;SDS011;6445;52.490;13.378;2024-03-02T12:54:46;31.35;;;20.75;;
12762;SDS011;6445;52.490;13.378;2024-03-02T12:57:16;28.45;;;20.35;;
12762;SDS011;6445;52.490;13.378;2024-03-02T12:59:44;27.75;;;18.65;;
12762;SDS011;6445;52.490;13.378;2024-03-02T13:02:16;27.60;;;19.40;;
12762;SDS011;6445;52.490;13.378;2024-03-02T13:04:42;27.98;;;19.55;;
12762;SDS011;6445;52.490;13.378;2024-03-02T13:07:08;28.88;;;20.92;;
12762;SDS011;6445;52.490;13.378;2024-03-02T13:09:33;26.92;;;20.30;;
12762;SDS011;6445;52.490;13.378;2024-03-02T13:11:59;26.58;;;19.85;;
12762;SDS011;6445;52.490;13.378;2024-03-02T13:14:25;26.20;;;19.60;;
12762;SDS011;6445;52.490;13.378;2024-03-02T13:16:51;27.50;;;18.90;;
12762;SDS011;6445;52.490;13.378;2024-03-02T13:19:17;24.40;;;18.58;;
12762;SDS011;6445;52.490;13.378;2024-03-02T13:21:44;26.40;;;19.38;;
12762;SDS011;6445;52.490;13.378;2024-03-02T13:24:09;27.08;;;19.58;;
12762;SDS011;6445;52.490;13.378;2024-03-02T13:26:34;24.77;;;18.67;;
12762;SDS011;6445;52.490;13.378;2024-03-02T13:29:00;26.95;;;18.25;;
12762;SDS011;6445;52.490;13.378;2024-03-02T13:31:26;25.48;;;18.08;;
12762;SDS011;6445;52.490;13.378;2024-03-02T13:33:51;24.08;;;17.77;;
12762;SDS011;6445;52.490;13.378;2024-03-02T13:36:16;25.17;;;18.00;;
12762;SDS011;6445;52.490;13.378;2024-03-02T13:38:43;29.55;;;22.60;;
12762;SDS011;6445;52.490;13.378;2024-03-02T13:41:08;25.83;;;17.33;;
12762;SDS011;6445;52.490;13.378;2024-03-02T13:43:33;26.75;;;17.75;;
12762;SDS011;6445;52.490;13.378;2024-03-02T13:46:00;24.95;;;17.75;;
12762;SDS011;6445;52.490;13.378;2024-03-02T13:48:27;22.98;;;16.88;;
12762;SDS011;6445;52.490;13.378;2024-03-02T13:50:52;21.98;;;16.83;;
12762;SDS011;6445;52.490;13.378;2024-03-02T13:53:18;22.13;;;15.57;;
12762;SDS011;6445;52.490;13.378;2024-03-02T13:55:43;22.27;;;15.10;;
12762;SDS011;6445;52.490;13.378;2024-03-02T13:58:09;20.52;;;14.88;;
12762;SDS011;6445;52.490;13.378;2024-03-02T14:00:35;21.27;;;15.20;;
12762;SDS011;6445;52.490;13.378;2024-03-02T14:03:02;22.20;;;14.82;;
12762;SDS011;6445;52.490;13.378;2024-03-02T14:05:28;20.20;;;13.90;;
12762;SDS011;6445;52.490;13.378;2024-03-02T14:07:54;20.33;;;14.40;;
12762;SDS011;6445;52.490;13.378;2024-03-02T14:10:19;21.02;;;14.30;;
12762;SDS011;6445;52.490;13.378;2024-03-02T14:12:47;20.77;;;13.90;;
12762;SDS011;6445;52.490;13.378;2024-03-02T14:15:12;18.13;;;13.05;;
12762;SDS011;6445;52.490;13.378;2024-03-02T14:17:37;20.20;;;13.75;;
12762;SDS011;6445;52.490;13.378;2024-03-02T14:20:03;15.95;;;12.55;;
12762;SDS011;6445;52.490;13.378;2024-03-02T14:22:29;19.65;;;13.93;;